Time;durP1;ratioP1;P1;durP2;ratioP2;P2;SDS_P1;SDS_P2;PMS_P1;PMS_P2;Temp;Humidity;BMP_temperature;BMP_pressure;BME280_temperature;BME280_humidity;BME280_pressure;Samples;Min_cycle;Max_cycle;Signal;HPM_P1;HPM_P2
2022/09/14 01:01:01;;;;;;;;;;;;;;;16.75;100.00;95087.78;1055255;22;19951;-87
2022/09/14 01:01:31;;;;;;;;;;;;;;;16.76;100.00;95083.25;1044362;28;19921;-87
2022/09/14 01:02:02;;;;;;;;;;;;;;;16.76;100.00;95088.56;1041311;28;20215;-87
2022/09/14 01:02:32;;;;;;;;;;;;;;;16.76;100.00;95088.56;1043031;28;20374;-88
2022/09/14 01:03:02;;;;;;;;;;;;;;;16.75;100.00;95081.72;1039984;28;19905;-88
2022/09/14 01:03:33;;;;;;;;;;;;;;;16.76;100.00;95078.72;1048515;28;20373;-88
2022/09/14 01:04:03;;;;;;;;;;;;;;;16.76;100.00;95077.94;1036352;28;19948;-87
2022/09/14 01:04:34;;;;;;;;;;;;;;;16.77;100.00;95090.09;1032354;28;19989;-88
2022/09/14 01:05:04;;;;;;;;;;;;;;;16.77;100.00;95079.50;1036380;28;19956;-87
2022/09/14 01:05:53;;;;;;;;;;;;;;;16.77;100.00;95075.00;1046448;28;19930;-87
2022/09/14 01:06:45;;;;;;;;;;;;;;;16.76;100.00;95077.94;1030222;28;19906;-87
2022/09/14 01:07:18;;;;;;;;;;;;;;;16.75;100.00;95090.44;1034551;28;19913;-88
2022/09/14 01:07:58;;;;;;;;;;;;;;;16.72;100.00;95094.44;1040725;28;19905;-87
2022/09/14 01:08:47;;;;;;;;;;;;;;;16.71;100.00;95092.91;1040739;28;19908;-88
2022/09/14 01:09:24;;;;;;;;;;;;;;;16.70;100.00;95096.66;1033117;28;20420;-87
2022/09/14 01:10:13;;;;;;;;;;;;;;;16.70;100.00;95090.59;1045089;28;19911;-88
2022/09/14 01:10:49;;;;;;;;;;;;;;;16.71;100.00;95087.59;1041072;28;19901;-88
2022/09/14 01:11:37;;;;;;;;;;;;;;;16.72;100.00;95089.16;1032611;28;19910;-89
2022/09/14 01:12:11;;;;;;;;;;;;;;;16.73;100.00;95087.28;1036890;28;19925;-88
2022/09/14 01:12:42;;;;;;;;;;;;;;;16.74;100.00;95091.50;1044550;28;20430;-87
2022/09/14 01:13:21;;;;;;;;;;;;;;;16.75;100.00;95081.72;1044288;28;19956;-88
2022/09/14 01:14:01;;;;;;;;;;;;;;;16.75;100.00;95081.72;1032273;28;19905;-88
2022/09/14 01:14:35;;;;;;;;;;;;;;;16.76;100.00;95085.91;1038152;28;19909;-88
2022/09/14 01:15:05;;;;;;;;;;;;;;;16.76;100.00;95077.94;1048489;28;19901;-87
2022/09/14 01:15:54;;;;;;;;;;;;;;;16.75;100.00;95082.47;1036144;28;19949;-87
2022/09/14 01:16:36;;;;;;;;;;;;;;;16.77;100.00;95079.50;1036607;28;19906;-88
2022/09/14 01:17:13;;;;;;;;;;;;;;;16.75;100.00;95071.09;1040774;28;19905;-88
2022/09/14 01:17:57;;;;;;;;;;;;;;;16.74;100.00;95078.25;1037441;28;19992;-88
2022/09/14 01:18:29;;;;;;;;;;;;;;;16.72;100.00;95065.31;1041265;28;19908;-89
2022/09/14 01:19:00;;;;;;;;;;;;;;;16.73;100.00;95074.84;1037164;28;20012;-88
2022/09/14 01:19:56;;;;;;;;;;;;;;;16.73;100.00;95068.72;1043271;28;19908;-89
2022/09/14 01:20:40;;;;;;;;;;;;;;;16.72;100.00;95072.47;1041453;28;19981;-88
2022/09/14 01:21:14;;;;;;;;;;;;;;;16.72;100.00;95077.78;1040832;28;19901;-88
2022/09/14 01:21:45;;;;;;;;;;;;;;;16.72;100.00;95075.91;1033154;28;20089;-88
2022/09/14 01:22:17;;;;;;;;;;;;;;;16.73;100.00;95074.03;1041102;28;19902;-91
2022/09/14 01:23:04;;;;;;;;;;;;;;;16.72;100.00;95078.56;1037062;28;19902;-90
2022/09/14 01:23:34;;;;;;;;;;;;;;;16.72;100.00;95083.84;1037226;28;19945;-90
2022/09/14 01:24:20;;;;;;;;;;;;;;;16.73;100.00;95087.28;1043533;28;19904;-89
2022/09/14 01:24:52;;;;;;;;;;;;;;;16.71;100.00;95073.59;1047593;28;19908;-90
2022/09/14 01:25:28;;;;;;;;;;;;;;;16.69;100.00;95079.19;1032086;28;19918;-89
2022/09/14 01:26:07;;;;;;;;;;;;;;;16.67;100.00;95073.44;1036006;28;20244;-89
2022/09/14 01:26:43;;;;;;;;;;;;;;;16.67;100.00;95076.09;1035782;28;19901;-88
2022/09/14 01:27:19;;;;;;;;;;;;;;;16.67;100.00;95077.97;1035903;28;19909;-89
2022/09/14 01:27:50;;;;;;;;;;;;;;;16.66;100.00;95079.81;1027879;28;19902;-88
2022/09/14 01:28:25;;;;;;;;;;;;;;;16.67;100.00;95081.41;1035822;28;19901;-89
2022/09/14 01:28:56;;;;;;;;;;;;;;;16.66;100.00;95084.34;1044399;28;19905;-89
2022/09/14 01:29:29;;;;;;;;;;;;;;;16.66;100.00;95084.34;1036094;28;19912;-89
2022/09/14 01:30:07;;;;;;;;;;;;;;;16.65;100.00;95083.56;1035833;28;19902;-89
2022/09/14 01:30:37;;;;;;;;;;;;;;;16.66;100.00;95084.34;1039990;28;19948;-90
2022/09/14 01:31:10;;;;;;;;;;;;;;;16.64;100.00;95091.84;1036030;28;19906;-89
2022/09/14 01:31:54;;;;;;;;;;;;;;;16.61;100.00;95085.31;1044083;28;19931;-89
2022/09/14 01:32:26;;;;;;;;;;;;;;;16.60;100.00;95086.41;1035629;28;20385;-89
2022/09/14 01:33:08;;;;;;;;;;;;;;;16.60;100.00;95093.56;1035953;28;19906;-88
2022/09/14 01:33:40;;;;;;;;;;;;;;;16.57;100.00;95087.03;1031953;28;19909;-89
2022/09/14 01:34:16;;;;;;;;;;;;;;;16.57;100.00;95083.63;1039958;28;19909;-89
2022/09/14 01:34:52;;;;;;;;;;;;;;;16.56;100.00;95079.38;1032488;28;20030;-89
2022/09/14 01:35:30;;;;;;;;;;;;;;;16.56;100.00;95080.16;1036078;28;20442;-89
2022/09/14 01:36:01;;;;;;;;;;;;;;;16.55;100.00;95085.78;1040054;28;19911;-89
2022/09/14 01:36:31;;;;;;;;;;;;;;;16.55;100.00;95083.16;1036967;28;20291;-89
2022/09/14 01:37:11;;;;;;;;;;;;;;;16.55;100.00;95081.28;1031954;28;19913;-90
2022/09/14 01:37:44;;;;;;;;;;;;;;;16.56;100.00;95085.47;1027966;28;20403;-90
2022/09/14 01:38:22;;;;;;;;;;;;;;;16.56;100.00;95090.75;1037138;28;19912;-90
2022/09/14 01:38:52;;;;;;;;;;;;;;;16.59;100.00;95089.34;1048403;28;19907;-89
2022/09/14 01:39:22;;;;;;;;;;;;;;;16.58;100.00;95082.50;1040053;28;19905;-88
2022/09/14 01:40:04;;;;;;;;;;;;;;;16.57;100.00;95092.34;1035090;28;19913;-90
2022/09/14 01:40:36;;;;;;;;;;;;;;;16.57;100.00;95087.03;1044109;28;19907;-89
2022/09/14 01:41:08;;;;;;;;;;;;;;;16.58;100.00;95087.81;1040240;28;20051;-89
2022/09/14 01:41:38;;;;;;;;;;;;;;;16.60;100.00;95086.41;1035985;28;20307;-90
2022/09/14 01:42:09;;;;;;;;;;;;;;;16.60;100.00;95086.41;1044189;28;19901;-90
2022/09/14 01:42:40;;;;;;;;;;;;;;;16.60;100.00;95085.59;1048113;28;19904;-89
2022/09/14 01:43:13;;;;;;;;;;;;;;;16.60;100.00;95085.59;1036152;28;19905;-90
2022/09/14 01:43:45;;;;;;;;;;;;;;;16.61;100.00;95082.66;1039798;28;20005;-89
2022/09/14 01:44:26;;;;;;;;;;;;;;;16.61;100.00;95071.28;1040090;28;19913;-89
2022/09/14 01:44:57;;;;;;;;;;;;;;;16.60;100.00;95086.41;1031859;28;20368;-89
2022/09/14 01:45:28;;;;;;;;;;;;;;;16.60;100.00;95075.00;1027678;28;19922;-89
2022/09/14 01:45:59;;;;;;;;;;;;;;;16.60;100.00;95075.81;1035867;28;19905;-89
2022/09/14 01:46:34;;;;;;;;;;;;;;;16.60;100.00;95083.75;1039931;28;19912;-90
2022/09/14 01:47:06;;;;;;;;;;;;;;;16.61;100.00;95077.34;1031676;28;19905;-91
2022/09/14 01:47:48;;;;;;;;;;;;;;;16.60;100.00;95075.00;1040003;28;19955;-90
2022/09/14 01:48:23;;;;;;;;;;;;;;;16.62;100.00;95083.44;1039791;28;19908;-89
2022/09/14 01:48:56;;;;;;;;;;;;;;;16.61;100.00;95085.31;1027768;28;19906;-89
2022/09/14 01:49:31;;;;;;;;;;;;;;;16.62;100.00;95086.84;1032027;28;19905;-89
2022/09/14 01:50:03;;;;;;;;;;;;;;;16.62;100.00;95086.84;1035988;28;19905;-90
2022/09/14 01:50:43;;;;;;;;;;;;;;;16.62;100.00;95086.06;1040045;28;19940;-90
2022/09/14 01:51:15;;;;;;;;;;;;;;;16.62;100.00;95078.13;1031990;28;20414;-89
2022/09/14 01:51:46;;;;;;;;;;;;;;;16.63;100.00;95088.44;1039865;28;19937;-90
2022/09/14 01:52:19;;;;;;;;;;;;;;;16.62;100.00;95080.78;1036080;28;20371;-89
2022/09/14 01:52:56;;;;;;;;;;;;;;;16.61;100.00;95079.22;1031697;28;19936;-89
2022/09/14 01:53:29;;;;;;;;;;;;;;;16.62;100.00;95081.56;1024056;28;19985;-89
2022/09/14 01:54:10;;;;;;;;;;;;;;;16.61;100.00;95074.72;1035892;28;19917;-89
2022/09/14 01:55:03;;;;;;;;;;;;;;;16.62;100.00;95078.13;1031670;28;19902;-91
2022/09/14 01:55:37;;;;;;;;;;;;;;;16.61;100.00;95077.34;1022690;28;20379;-89
2022/09/14 01:56:21;;;;;;;;;;;;;;;16.61;100.00;95077.34;1040089;28;19905;-90
2022/09/14 01:56:55;;;;;;;;;;;;;;;16.62;100.00;95073.59;1039754;28;20371;-90
2022/09/14 01:57:31;;;;;;;;;;;;;;;16.62;100.00;95073.59;1039749;28;20354;-89
2022/09/14 01:58:17;;;;;;;;;;;;;;;16.61;100.00;95077.34;1040036;28;20282;-90
2022/09/14 01:59:06;;;;;;;;;;;;;;;16.62;100.00;95078.91;1042510;28;19912;-89
2022/09/14 01:59:37;;;;;;;;;;;;;;;16.64;100.00;95082.03;1035413;28;19906;-90
2022/09/14 02:00:09;;;;;;;;;;;;;;;16.65;100.00;95075.63;1039937;28;19901;-89
2022/09/14 02:00:40;;;;;;;;;;;;;;;16.65;100.00;95078.28;1043434;28;19951;-89
2022/09/14 02:01:12;;;;;;;;;;;;;;;16.65;100.00;95072.97;1031856;28;19917;-90
2022/09/14 02:01:46;;;;;;;;;;;;;;;16.65;100.00;95078.28;1039839;28;19930;-90
2022/09/14 02:02:35;;;;;;;;;;;;;;;16.66;100.00;95074.53;1039575;28;19962;-89
2022/09/14 02:03:15;;;;;;;;;;;;;;;16.65;100.00;95075.63;1031765;28;20009;-89
2022/09/14 02:03:47;;;;;;;;;;;;;;;16.66;100.00;95071.09;1023631;29;20444;-90
2022/09/14 02:04:20;;;;;;;;;;;;;;;16.65;100.00;95072.97;1044071;28;20316;-90
2022/09/14 02:05:12;;;;;;;;;;;;;;;16.64;100.00;95066.13;1039987;28;19901;-90
2022/09/14 02:05:56;;;;;;;;;;;;;;;16.64;100.00;95068.78;1035636;28;20372;-90
2022/09/14 02:06:28;;;;;;;;;;;;;;;16.64;100.00;95068.78;1035714;28;19948;-89
2022/09/14 02:06:59;;;;;;;;;;;;;;;16.63;100.00;95069.88;1027618;28;20427;-88
2022/09/14 02:07:29;;;;;;;;;;;;;;;16.63;100.00;95067.22;1035867;28;19909;-91
2022/09/14 02:07:59;;;;;;;;;;;;;;;16.61;100.00;95069.41;1039962;28;19905;-89
2022/09/14 02:08:30;;;;;;;;;;;;;;;16.61;100.00;95066.00;1032000;28;20406;-89
2022/09/14 02:09:01;;;;;;;;;;;;;;;16.60;100.00;95064.41;1042327;28;19901;-90
2022/09/14 02:09:31;;;;;;;;;;;;;;;16.60;100.00;95064.41;1041403;28;20271;-90
2022/09/14 02:10:02;;;;;;;;;;;;;;;16.59;100.00;95068.94;1027853;28;19902;-90
2022/09/14 02:10:33;;;;;;;;;;;;;;;16.59;100.00;95068.94;1040033;28;19913;-91
2022/09/14 02:11:04;;;;;;;;;;;;;;;16.58;100.00;95066.63;1037320;28;19901;-89
2022/09/14 02:11:34;;;;;;;;;;;;;;;16.56;100.00;95069.56;1027955;28;20001;-90
2022/09/14 02:12:04;;;;;;;;;;;;;;;16.56;100.00;95066.91;1039825;28;20282;-89
2022/09/14 02:12:35;;;;;;;;;;;;;;;16.56;100.00;95058.97;1044261;28;19905;-90
2022/09/14 02:13:06;;;;;;;;;;;;;;;16.57;100.00;95059.78;1035832;28;19912;-91
2022/09/14 02:13:36;;;;;;;;;;;;;;;16.57;100.00;95060.56;1039954;28;19929;-90
2022/09/14 02:14:06;;;;;;;;;;;;;;;16.59;100.00;95058.34;1035951;28;19916;-88
2022/09/14 02:14:37;;;;;;;;;;;;;;;16.58;100.00;95056.81;1034393;28;19948;-88
2022/09/14 02:15:08;;;;;;;;;;;;;;;16.56;100.00;95061.63;1035976;28;19952;-90
2022/09/14 02:15:38;;;;;;;;;;;;;;;16.58;100.00;95056.03;1036034;28;19940;-89
2022/09/14 02:16:08;;;;;;;;;;;;;;;16.57;100.00;95063.19;1035980;28;19916;-88
2022/09/14 02:16:42;;;;;;;;;;;;;;;16.56;100.00;95061.63;1048283;28;19928;-89
2022/09/14 02:17:12;;;;;;;;;;;;;;;16.57;100.00;95062.44;1040274;28;19908;-89
2022/09/14 02:17:42;;;;;;;;;;;;;;;16.55;100.00;95062.72;1035946;28;19917;-88
2022/09/14 02:18:13;;;;;;;;;;;;;;;16.57;100.00;95065.84;1035773;28;19909;-88
2022/09/14 02:18:43;;;;;;;;;;;;;;;16.56;100.00;95058.19;1032076;28;20050;-89
2022/09/14 02:19:14;;;;;;;;;;;;;;;16.12;100.00;94994.78;1040089;28;20385;-89
2022/09/14 02:19:49;;;;;;;;;;;;;;;16.56;100.00;95056.31;1040052;28;21007;-88
2022/09/14 02:20:20;;;;;;;;;;;;;;;16.56;100.00;95050.25;1039800;28;20466;-89
2022/09/14 02:21:14;;;;;;;;;;;;;;;16.57;100.00;95052.59;1039980;28;20230;-90
2022/09/14 02:21:44;;;;;;;;;;;;;;;16.57;100.00;95049.94;1032923;28;19909;-88
2022/09/14 02:22:15;;;;;;;;;;;;;;;16.59;100.00;95037.16;1035816;28;20008;-89
2022/09/14 02:22:45;;;;;;;;;;;;;;;16.61;100.00;95039.50;1039892;28;19905;-90
2022/09/14 02:23:16;;;;;;;;;;;;;;;16.60;100.00;95041.38;1043959;28;19908;-88
2022/09/14 02:23:47;;;;;;;;;;;;;;;16.58;100.00;95046.19;1035771;28;19909;-88
2022/09/14 02:24:18;;;;;;;;;;;;;;;16.60;100.00;95038.72;1035653;28;20381;-89
2022/09/14 02:24:48;;;;;;;;;;;;;;;16.60;100.00;95038.72;1044904;28;20202;-89
2022/09/14 02:25:19;;;;;;;;;;;;;;;16.61;100.00;95034.19;1043930;28;20440;-89
2022/09/14 02:25:49;;;;;;;;;;;;;;;16.60;100.00;95041.38;1035794;28;20306;-89
2022/09/14 02:26:20;;;;;;;;;;;;;;;16.62;100.00;95041.03;1043617;28;19961;-89
2022/09/14 02:26:50;;;;;;;;;;;;;;;16.62;100.00;95041.03;1039702;28;19909;-90
2022/09/14 02:27:20;;;;;;;;;;;;;;;16.61;100.00;95040.28;1031491;28;19906;-88
2022/09/14 02:27:51;;;;;;;;;;;;;;;16.62;100.00;95047.13;1031598;28;19906;-89
2022/09/14 02:28:21;;;;;;;;;;;;;;;16.63;100.00;95045.25;1031720;28;19902;-90
2022/09/14 02:28:55;;;;;;;;;;;;;;;16.62;100.00;95039.16;1035812;28;19947;-88
2022/09/14 02:29:25;;;;;;;;;;;;;;;16.62;100.00;95041.81;1039675;28;19971;-89
2022/09/14 03:34:36;;;;;;;;;;;;;;;16.63;100.00;95001.00;1040170;28;19920;-88
2022/09/14 03:35:07;;;;;;;;;;;;;;;16.63;100.00;95000.22;1039466;28;20215;-89
2022/09/14 03:35:37;;;;;;;;;;;;;;;16.63;100.00;95000.22;1035674;28;20398;-89
2022/09/14 03:36:09;;;;;;;;;;;;;;;16.63;100.00;95001.00;1023631;28;19922;-89
2022/09/14 03:36:39;;;;;;;;;;;;;;;16.63;100.00;95000.22;1035630;28;20362;-89
2022/09/14 03:37:10;;;;;;;;;;;;;;;16.62;100.00;94998.66;1035655;28;19913;-89
2022/09/14 03:37:40;;;;;;;;;;;;;;;16.61;100.00;95003.19;1031723;28;19906;-88
2022/09/14 03:38:11;;;;;;;;;;;;;;;16.61;100.00;95008.50;1039094;28;19909;-89
2022/09/14 03:38:41;;;;;;;;;;;;;;;16.62;100.00;95001.31;1043719;28;19912;-88
2022/09/14 03:39:12;;;;;;;;;;;;;;;16.61;100.00;94992.59;1027485;28;20016;-89
2022/09/14 03:39:42;;;;;;;;;;;;;;;16.61;100.00;94991.81;1031695;28;19925;-90
2022/09/14 03:40:13;;;;;;;;;;;;;;;16.60;100.00;94996.34;1034866;28;19921;-89
2022/09/14 03:40:44;;;;;;;;;;;;;;;16.61;100.00;94992.59;1027496;28;19925;-90
2022/09/14 03:41:14;;;;;;;;;;;;;;;16.59;100.00;95002.72;1031636;28;19913;-88
2022/09/14 03:41:44;;;;;;;;;;;;;;;16.59;100.00;95001.94;1031493;28;20402;-89
2022/09/14 03:42:15;;;;;;;;;;;;;;;16.57;100.00;95001.50;1039532;28;19908;-89
2022/09/14 03:42:46;;;;;;;;;;;;;;;16.58;100.00;94998.53;1043923;28;20307;-89
2022/09/14 03:43:16;;;;;;;;;;;;;;;16.58;100.00;95009.13;1031312;28;20376;-90
2022/09/14 03:43:47;;;;;;;;;;;;;;;16.57;100.00;95001.50;1035395;28;19909;-89
2022/09/14 03:44:17;;;;;;;;;;;;;;;16.57;100.00;95012.09;1035546;28;20187;-88
2022/09/14 03:44:47;;;;;;;;;;;;;;;16.56;100.00;95011.28;1027350;28;20165;-88
2022/09/14 03:45:18;;;;;;;;;;;;;;;16.55;100.00;95003.69;1027400;28;19997;-91
2022/09/14 03:45:48;;;;;;;;;;;;;;;16.53;100.00;95003.22;1035451;28;20390;-89
2022/09/14 03:46:20;;;;;;;;;;;;;;;16.52;100.00;95009.63;1031681;28;20475;-89
2022/09/14 03:46:50;;;;;;;;;;;;;;;16.48;100.00;95004.94;1027408;28;19903;-90
2022/09/14 03:47:21;;;;;;;;;;;;;;;16.46;100.00;95011.66;1035699;28;20346;-89
2022/09/14 03:47:51;;;;;;;;;;;;;;;16.47;100.00;95008.69;1039871;28;19916;-89
2022/09/14 03:48:21;;;;;;;;;;;;;;;16.45;100.00;95007.47;1039228;28;20240;-89
2022/09/14 03:48:52;;;;;;;;;;;;;;;16.44;100.00;95009.34;1035714;28;19913;-89
2022/09/14 03:49:23;;;;;;;;;;;;;;;16.43;100.00;95009.63;1035738;28;19902;-89
2022/09/14 03:49:53;;;;;;;;;;;;;;;16.41;100.00;95011.84;1039654;28;19916;-89
2022/09/14 03:50:24;;;;;;;;;;;;;;;16.41;100.00;95003.91;1030716;28;19944;-88
2022/09/14 03:50:54;;;;;;;;;;;;;;;16.42;100.00;95002.78;1027721;28;19934;-89
2022/09/14 03:51:24;;;;;;;;;;;;;;;16.41;100.00;95003.91;1031555;28;19909;-88
2022/09/14 03:51:55;;;;;;;;;;;;;;;16.42;100.00;95000.91;1037211;28;19965;-88
2022/09/14 03:52:25;;;;;;;;;;;;;;;16.41;100.00;94998.59;1031629;28;19902;-89
2022/09/14 03:52:55;;;;;;;;;;;;;;;16.40;100.00;94995.19;1031562;28;19901;-89
2022/09/14 03:53:26;;;;;;;;;;;;;;;16.40;100.00;95000.47;1027580;28;19914;-89
2022/09/14 03:53:56;;;;;;;;;;;;;;;16.41;100.00;94995.94;1035429;28;20017;-88
2022/09/14 03:54:27;;;;;;;;;;;;;;;16.41;100.00;94998.59;1035621;28;20348;-89
2022/09/14 03:54:57;;;;;;;;;;;;;;;16.42;100.00;95000.16;1027569;28;19923;-90
2022/09/14 03:55:27;;;;;;;;;;;;;;;16.43;100.00;95001.69;1041515;28;19908;-90
2022/09/14 03:55:58;;;;;;;;;;;;;;;16.43;100.00;94999.84;1043906;28;20382;-88
2022/09/14 03:56:29;;;;;;;;;;;;;;;16.45;100.00;94994.22;1035933;28;19902;-89
2022/09/14 03:57:00;;;;;;;;;;;;;;;16.46;100.00;95006.34;1044001;28;20432;-88
2022/09/14 03:57:30;;;;;;;;;;;;;;;16.47;100.00;95002.63;1040084;28;19905;-91
2022/09/14 03:58:01;;;;;;;;;;;;;;;16.49;100.00;95005.72;1035985;28;19902;-88
2022/09/14 03:58:31;;;;;;;;;;;;;;;16.52;100.00;94999.03;1047762;28;19900;-89
2022/09/14 03:59:01;;;;;;;;;;;;;;;16.52;100.00;94999.78;1032009;28;19909;-89
2022/09/14 03:59:32;;;;;;;;;;;;;;;16.54;100.00;95002.91;1031716;28;19910;-89
2022/09/14 04:00:03;;;;;;;;;;;;;;;16.54;100.00;94996.84;1035583;28;20390;-88
2022/09/14 04:00:33;;;;;;;;;;;;;;;16.53;100.00;94996.03;1030248;28;19913;-90
2022/09/14 04:01:04;;;;;;;;;;;;;;;16.53;100.00;95000.56;1027882;28;20265;-90
2022/09/14 04:01:35;;;;;;;;;;;;;;;16.54;100.00;94996.84;1031500;28;19988;-89
2022/09/14 04:02:05;;;;;;;;;;;;;;;16.54;100.00;94999.50;1032739;28;19906;-89
2022/09/14 04:02:35;;;;;;;;;;;;;;;16.54;100.00;94994.97;1023708;28;19903;-88
2022/09/14 04:03:06;;;;;;;;;;;;;;;16.54;100.00;94994.97;1031536;28;19905;-89
2022/09/14 04:03:36;;;;;;;;;;;;;;;16.57;100.00;94996.97;1035633;28;20414;-90
2022/09/14 04:04:07;;;;;;;;;;;;;;;16.55;100.00;94993.88;1031446;28;19925;-89
2022/09/14 04:04:37;;;;;;;;;;;;;;;16.54;100.00;94997.63;1039485;28;19916;-89
2022/09/14 04:05:07;;;;;;;;;;;;;;;16.54;100.00;95002.91;1034987;28;19921;-91
2022/09/14 04:05:38;;;;;;;;;;;;;;;16.56;100.00;94999.94;1037789;28;19996;-89
2022/09/14 04:06:08;;;;;;;;;;;;;;;16.55;100.00;95001.81;1037143;28;19963;-89
2022/09/14 04:06:39;;;;;;;;;;;;;;;16.54;100.00;95002.91;1040865;28;19913;-91
2022/09/14 04:07:09;;;;;;;;;;;;;;;16.55;100.00;95001.03;1035911;28;19948;-88
2022/09/14 04:07:39;;;;;;;;;;;;;;;16.54;100.00;95002.91;1040397;28;20053;-92
2022/09/14 04:08:10;;;;;;;;;;;;;;;16.54;100.00;95000.25;1036709;28;19920;-88
2022/09/14 04:08:41;;;;;;;;;;;;;;;16.55;100.00;95009.75;1031682;28;19953;-89
2022/09/14 04:09:12;;;;;;;;;;;;;;;16.54;100.00;95008.22;1032755;28;19913;-89
2022/09/14 04:09:42;;;;;;;;;;;;;;;16.53;100.00;95006.63;1027626;28;20334;-90
2022/09/14 04:10:15;;;;;;;;;;;;;;;16.56;100.00;95003.34;1031801;28;19914;-89
2022/09/14 04:10:46;;;;;;;;;;;;;;;16.55;100.00;94998.38;1031482;28;20000;-88
2022/09/14 04:11:17;;;;;;;;;;;;;;;16.54;100.00;95008.22;1031889;28;20279;-88
2022/09/14 04:11:48;;;;;;;;;;;;;;;16.53;100.00;95001.34;1027621;28;20024;-87
2022/09/14 04:12:18;;;;;;;;;;;;;;;16.49;100.00;95000.44;1043943;28;19912;-89
2022/09/14 04:12:48;;;;;;;;;;;;;;;16.48;100.00;95012.13;1039637;28;19909;-88
2022/09/14 04:13:19;;;;;;;;;;;;;;;16.46;100.00;95006.34;1039785;28;19913;-88
2022/09/14 04:13:49;;;;;;;;;;;;;;;16.43;100.00;95004.34;1031674;28;19952;-88
2022/09/14 04:14:20;;;;;;;;;;;;;;;16.43;100.00;95002.50;1035300;28;20338;-88
2022/09/14 04:14:50;;;;;;;;;;;;;;;16.42;100.00;95008.09;1031249;28;19914;-89
2022/09/14 04:15:20;;;;;;;;;;;;;;;16.37;100.00;94998.47;1027940;28;19977;-88
2022/09/14 04:16:00;;;;;;;;;;;;;;;16.35;100.00;95005.16;1031317;28;19917;-89
2022/09/14 04:16:30;;;;;;;;;;;;;;;16.32;100.00;95001.25;1031666;28;20280;-89
2022/09/14 04:17:01;;;;;;;;;;;;;;;16.31;100.00;94999.72;1027326;28;19914;-89
2022/09/14 04:17:31;;;;;;;;;;;;;;;16.30;100.00;95002.66;1035586;28;20315;-89
2022/09/14 04:18:02;;;;;;;;;;;;;;;16.29;100.00;95009.06;1034231;28;19949;-89
2022/09/14 04:18:32;;;;;;;;;;;;;;;16.28;100.00;95000.34;1023481;28;19954;-89
2022/09/14 04:19:02;;;;;;;;;;;;;;;16.29;100.00;95001.13;1031525;28;20387;-89
2022/09/14 04:19:34;;;;;;;;;;;;;;;16.29;100.00;94987.88;1036827;28;19992;-90
2022/09/14 04:20:04;;;;;;;;;;;;;;;16.26;100.00;94987.44;1039537;28;19909;-91
2022/09/14 04:20:35;;;;;;;;;;;;;;;16.27;100.00;94991.63;1031796;28;20384;-88
2022/09/14 04:21:06;;;;;;;;;;;;;;;16.26;100.00;94992.75;1043627;28;20007;-90
2022/09/14 04:21:36;;;;;;;;;;;;;;;16.27;100.00;94999.59;1031538;28;19975;-91
2022/09/14 04:22:06;;;;;;;;;;;;;;;16.26;100.00;94997.22;1031600;28;19910;-88
2022/09/14 04:22:37;;;;;;;;;;;;;;;16.25;100.00;95001.75;1035685;28;19914;-89
2022/09/14 04:23:07;;;;;;;;;;;;;;;16.25;100.00;95003.63;1038119;28;19957;-89
2022/09/14 04:23:37;;;;;;;;;;;;;;;16.24;100.00;95004.72;1027508;28;19969;-89
2022/09/14 04:24:09;;;;;;;;;;;;;;;16.23;100.00;95003.97;1035630;28;19939;-89
2022/09/14 04:24:39;;;;;;;;;;;;;;;16.24;100.00;95000.22;1035358;28;20322;-90
2022/09/14 04:25:10;;;;;;;;;;;;;;;16.24;100.00;95005.50;1035509;28;19909;-89
2022/09/14 04:25:40;;;;;;;;;;;;;;;16.22;100.00;95002.38;1039638;28;19908;-89
2022/09/14 04:26:11;;;;;;;;;;;;;;;16.22;100.00;94997.09;1035487;28;20371;-90
2022/09/14 04:26:42;;;;;;;;;;;;;;;16.22;100.00;94989.16;1031534;28;20024;-89
2022/09/14 04:27:12;;;;;;;;;;;;;;;16.22;100.00;94991.03;1031282;28;19914;-90
2022/09/14 04:27:43;;;;;;;;;;;;;;;16.21;100.00;94995.53;1031405;28;19960;-90
2022/09/14 04:28:13;;;;;;;;;;;;;;;16.21;100.00;94995.53;1037988;28;19952;-90
2022/09/14 04:28:43;;;;;;;;;;;;;;;16.20;100.00;94994.00;1039491;28;19995;-89
2022/09/14 04:29:14;;;;;;;;;;;;;;;16.21;100.00;94989.47;1043609;28;19999;-89
2022/09/14 04:29:44;;;;;;;;;;;;;;;16.20;100.00;94994.00;1034346;28;20342;-89
2022/09/14 04:30:15;;;;;;;;;;;;;;;16.20;100.00;94999.28;1030925;28;19913;-89
2022/09/14 04:30:54;;;;;;;;;;;;;;;16.20;100.00;94995.88;1035349;28;20375;-90
2022/09/14 04:31:25;;;;;;;;;;;;;;;16.21;100.00;94990.25;1035217;28;20004;-89
2022/09/14 04:31:56;;;;;;;;;;;;;;;16.21;100.00;94995.53;1031530;28;20463;-90
2022/09/14 04:32:26;;;;;;;;;;;;;;;16.22;100.00;95006.91;1035630;28;20019;-89
2022/09/14 04:32:56;;;;;;;;;;;;;;;16.21;100.00;95006.13;1035605;28;19924;-89
2022/09/14 04:33:30;;;;;;;;;;;;;;;16.21;100.00;95000.84;1030568;28;20013;-89
2022/09/14 04:34:00;;;;;;;;;;;;;;;16.23;100.00;95008.44;1031611;28;20004;-89
2022/09/14 04:34:32;;;;;;;;;;;;;;;16.23;100.00;95001.31;1035540;28;20125;-89
2022/09/14 04:35:03;;;;;;;;;;;;;;;16.23;100.00;95014.53;1038925;28;20428;-89
2022/09/14 04:35:33;;;;;;;;;;;;;;;16.20;100.00;95004.59;1039516;28;19953;-90
2022/09/14 04:36:07;;;;;;;;;;;;;;;16.20;100.00;95003.81;1035714;28;20116;-89
2022/09/14 04:36:37;;;;;;;;;;;;;;;16.19;100.00;95008.31;1041866;28;19908;-90
2022/09/14 04:37:07;;;;;;;;;;;;;;;16.18;100.00;95012.06;1035579;28;19914;-89
2022/09/14 04:37:38;;;;;;;;;;;;;;;16.17;100.00;95015.81;1043597;28;20345;-90
2022/09/14 04:38:08;;;;;;;;;;;;;;;16.18;100.00;95022.66;1039899;28;19913;-88
2022/09/14 04:38:39;;;;;;;;;;;;;;;16.18;100.00;95017.34;1035569;28;19918;-89
2022/09/14 04:39:09;;;;;;;;;;;;;;;16.19;100.00;95023.41;1035464;28;20354;-89
2022/09/14 04:39:41;;;;;;;;;;;;;;;16.17;100.00;95015.81;1031229;28;19914;-88
2022/09/14 04:40:11;;;;;;;;;;;;;;;16.18;100.00;95027.16;1031263;28;19917;-88
2022/09/14 04:40:41;;;;;;;;;;;;;;;16.17;100.00;95025.63;1031413;28;19949;-88
2022/09/14 04:41:13;;;;;;;;;;;;;;;16.16;100.00;95018.75;1027494;28;19918;-88
2022/09/14 04:41:43;;;;;;;;;;;;;;;16.17;100.00;95025.63;1039480;28;20275;-89
2022/09/14 04:42:13;;;;;;;;;;;;;;;16.16;100.00;95022.19;1035501;28;19909;-88
2022/09/14 04:42:44;;;;;;;;;;;;;;;16.17;100.00;95021.09;1031392;28;20360;-89
2022/09/14 04:43:14;;;;;;;;;;;;;;;16.19;100.00;95023.41;1039594;28;19913;-90
2022/09/14 04:43:45;;;;;;;;;;;;;;;16.19;100.00;95023.41;1040167;28;19959;-89
2022/09/14 04:44:15;;;;;;;;;;;;;;;16.18;100.00;95017.34;1031909;28;19941;-89
2022/09/14 04:44:46;;;;;;;;;;;;;;;16.20;100.00;95019.69;1036002;28;20007;-89
2022/09/14 04:45:16;;;;;;;;;;;;;;;16.20;100.00;95022.34;1034787;28;19917;-90
2022/09/14 04:45:47;;;;;;;;;;;;;;;16.20;100.00;95025.75;1036098;28;19916;-90
2022/09/14 04:46:22;;;;;;;;;;;;;;;16.22;100.00;95014.84;1040298;28;19954;-88
2022/09/14 04:46:53;;;;;;;;;;;;;;;16.23;100.00;95014.53;1030340;28;19910;-90
2022/09/14 04:47:24;;;;;;;;;;;;;;;16.23;100.00;95014.53;1040399;28;20355;-90
2022/09/14 04:47:54;;;;;;;;;;;;;;;16.23;100.00;95014.53;1040054;28;19913;-89
2022/09/14 04:48:24;;;;;;;;;;;;;;;16.23;100.00;95014.53;1032905;28;19913;-90
2022/09/14 04:48:55;;;;;;;;;;;;;;;16.23;100.00;95011.91;1044479;28;19915;-91
2022/09/14 04:49:25;;;;;;;;;;;;;;;16.24;100.00;95021.38;1040156;28;19967;-88
2022/09/14 04:49:56;;;;;;;;;;;;;;;16.23;100.00;95014.53;1023952;28;20494;-90
2022/09/14 04:50:26;;;;;;;;;;;;;;;16.24;100.00;95016.09;1035890;28;20010;-90
2022/09/14 04:50:59;;;;;;;;;;;;;;;16.25;100.00;95009.69;1044281;28;19952;-89
2022/09/14 04:51:35;;;;;;;;;;;;;;;16.25;100.00;95009.69;1040283;28;19913;-90
2022/09/14 04:52:05;;;;;;;;;;;;;;;16.27;100.00;95012.03;1028177;28;19950;-88
2022/09/14 04:52:36;;;;;;;;;;;;;;;16.27;100.00;95009.41;1036082;28;19913;-89
2022/09/14 04:53:06;;;;;;;;;;;;;;;16.29;100.00;95014.38;1036235;28;20020;-90
2022/09/14 04:53:37;;;;;;;;;;;;;;;16.27;100.00;95018.09;1029729;28;20311;-88